createdAt,value
2022-08-22T00:02:48.063Z,100025.19
2022-08-22T00:02:54.798Z,100087.75
2022-08-22T00:04:57.940Z,100098.28
2022-08-22T00:09:54.132Z,100085.63
2022-08-22T00:14:47.255Z,100081.47
2022-08-22T00:19:51.913Z,100075.59
2022-08-22T00:25:25.419Z,100081.88
2022-08-22T00:30:39.380Z,100042.22
2022-08-22T00:36:09.496Z,100083.28
2022-08-22T00:41:28.143Z,100084.22
2022-08-22T00:47:05.871Z,100090.03
2022-08-22T00:52:16.373Z,100104.44
2022-08-22T00:57:12.727Z,100113.00
2022-08-22T01:02:43.849Z,100094.59
2022-08-22T01:07:51.652Z,100092.56
2022-08-22T01:12:59.030Z,100089.59
2022-08-22T01:18:16.755Z,100083.91
2022-08-22T01:23:46.803Z,100078.19
2022-08-22T01:29:03.565Z,100079.09
2022-08-22T01:34:36.370Z,100074.91
2022-08-22T01:39:37.663Z,100074.91
2022-08-22T01:44:44.501Z,100091.00
2022-08-22T01:50:22.073Z,100052.22
2022-08-22T01:55:27.759Z,100089.31
2022-08-22T02:00:34.703Z,100065.16
2022-08-22T02:05:39.319Z,100093.19
2022-08-22T02:11:00.415Z,100087.63
2022-08-22T02:16:27.680Z,100076.91
2022-08-22T02:21:33.621Z,100076.09
2022-08-22T02:26:50.539Z,100083.28
2022-08-22T02:32:14.703Z,100078.09
2022-08-22T02:37:10.638Z,100088.81
2022-08-22T02:42:29.290Z,100071.03
2022-08-22T02:47:47.503Z,100080.59
2022-08-22T02:53:17.487Z,100078.78
2022-08-22T02:58:13.565Z,100078.59
2022-08-22T03:03:20.212Z,100081.44
2022-08-22T03:08:24.385Z,100072.53
2022-08-22T03:13:27.331Z,100064.66
2022-08-22T03:18:38.961Z,100084.97
2022-08-22T03:23:35.951Z,100067.84
2022-08-22T03:28:59.471Z,100069.03
2022-08-22T03:34:32.596Z,100078.78
2022-08-22T03:39:58.511Z,100069.84
2022-08-22T03:44:56.978Z,100076.22
2022-08-22T03:50:18.136Z,100090.66
2022-08-22T03:55:14.748Z,100088.81
2022-08-22T04:00:56.709Z,100066.63
2022-08-22T04:06:12.631Z,100089.81
2022-08-22T04:11:09.367Z,100087.13
2022-08-22T04:16:38.105Z,100082.75
2022-08-22T04:21:49.559Z,100090.97
2022-08-22T04:26:56.693Z,100094.34
2022-08-22T04:32:03.781Z,100079.16
2022-08-22T04:37:25.943Z,100077.03
2022-08-22T04:42:38.198Z,100087.06
2022-08-22T04:47:37.109Z,100098.53
2022-08-22T04:52:50.066Z,100105.72
2022-08-22T04:58:12.658Z,100104.03
2022-08-22T05:03:16.761Z,100074.94
2022-08-22T05:08:32.732Z,100115.75
2022-08-22T05:13:44.656Z,100089.38
2022-08-22T05:18:53.701Z,100098.28
2022-08-22T05:24:17.753Z,100123.16
2022-08-22T05:29:14.324Z,100132.34
2022-08-22T05:34:39.387Z,100122.09
2022-08-22T05:39:41.868Z,100119.69
2022-08-22T05:44:38.927Z,100122.31
2022-08-22T05:49:49.467Z,100121.59
2022-08-22T05:54:53.395Z,100096.88
2022-08-22T05:59:54.739Z,100096.00
2022-08-22T06:05:01.395Z,100116.63
2022-08-22T06:10:26.502Z,100125.16
2022-08-22T06:15:39.987Z,100127.63
2022-08-22T06:21:10.297Z,100145.22
2022-08-22T06:26:06.296Z,100122.91
2022-08-22T06:31:37.141Z,100126.47
2022-08-22T06:36:34.092Z,100106.09
2022-08-22T06:41:31.679Z,100125.63
2022-08-22T06:46:28.374Z,100127.16
2022-08-22T06:51:24.270Z,100124.44
2022-08-22T06:56:34.675Z,100114.69
2022-08-22T07:01:45.362Z,100117.91
2022-08-22T07:06:50.553Z,100131.16
2022-08-22T07:11:44.750Z,100112.53
2022-08-22T07:16:46.091Z,100128.53
2022-08-22T07:21:47.034Z,100110.53
2022-08-22T07:26:47.767Z,100129.84
2022-08-22T07:31:50.903Z,100116.13
2022-08-22T07:37:22.008Z,100130.53
2022-08-22T07:42:28.632Z,100134.41
2022-08-22T07:47:27.284Z,100119.50
2022-08-22T07:52:22.260Z,100121.19
2022-08-22T07:57:37.743Z,100123.53
2022-08-22T08:02:32.406Z,100117.31
2022-08-22T08:07:28.944Z,100124.38
2022-08-22T08:12:38.416Z,100130.44
2022-08-22T08:17:34.646Z,100115.75
2022-08-22T08:22:28.627Z,100118.13
2022-08-22T08:27:50.127Z,100117.94
2022-08-22T08:32:49.144Z,100133.13
2022-08-22T08:37:49.395Z,100132.78
2022-08-22T08:43:25.400Z,100153.75
2022-08-22T08:48:44.725Z,100151.59
2022-08-22T08:53:59.479Z,100146.09
2022-08-22T08:59:10.223Z,100153.28
2022-08-22T09:04:17.178Z,100154.97
2022-08-22T09:09:31.055Z,100144.91
2022-08-22T09:14:44.351Z,100136.19
2022-08-22T09:19:56.791Z,100133.38
2022-08-22T09:24:49.979Z,100142.25
2022-08-22T09:29:54.537Z,100135.19
2022-08-22T09:34:59.731Z,100121.78
2022-08-22T09:40:01.381Z,100128.00
2022-08-22T09:45:38.966Z,100126.97
2022-08-22T09:51:13.490Z,100122.63
2022-08-22T09:56:21.461Z,100121.59
2022-08-22T10:01:19.175Z,100109.06
2022-08-22T10:06:23.132Z,100103.00
2022-08-22T10:11:26.422Z,100097.47
2022-08-22T10:16:27.698Z,100104.50
2022-08-22T10:21:25.203Z,100094.63
2022-08-22T10:26:22.597Z,100082.06
2022-08-22T10:31:58.367Z,100065.91
2022-08-22T10:37:03.864Z,100075.84
2022-08-22T10:42:28.202Z,100093.13
2022-08-22T10:47:38.718Z,100049.28
2022-08-22T10:52:39.192Z,100065.44
2022-08-22T10:57:43.511Z,100040.91
2022-08-22T11:02:53.095Z,100064.25
2022-08-22T11:07:48.917Z,100057.19
2022-08-22T11:13:07.835Z,100054.72
2022-08-22T11:18:27.101Z,100063.06
2022-08-22T11:23:42.454Z,100059.38
2022-08-22T11:28:55.863Z,100041.94
2022-08-22T11:34:07.329Z,100042.28
2022-08-22T11:39:18.417Z,100020.25
2022-08-22T11:45:00.524Z,100032.72
2022-08-22T11:50:24.565Z,100024.50
2022-08-22T11:55:23.765Z,100030.72
2022-08-22T12:00:17.656Z,100023.66
2022-08-22T12:05:24.583Z,100011.06
2022-08-22T12:10:30.996Z,100005.88
2022-08-22T12:15:46.932Z,100013.97
2022-08-22T12:21:04.980Z,100011.75
2022-08-22T12:26:22.264Z,99998.03
2022-08-22T12:31:20.975Z,100006.41
2022-08-22T12:36:39.062Z,100000.84
2022-08-22T12:42:04.278Z,100004.41
2022-08-22T12:47:19.986Z,100001.84
2022-08-22T12:52:31.262Z,100001.72
2022-08-22T12:57:43.313Z,99987.63
2022-08-22T13:02:39.888Z,99983.09
2022-08-22T13:07:39.191Z,99979.25
2022-08-22T13:12:44.112Z,99962.59
2022-08-22T13:17:39.000Z,99976.56
2022-08-22T13:22:36.088Z,99970.03
2022-08-22T13:27:51.289Z,99942.16
2022-08-22T13:32:52.774Z,99944.03
2022-08-22T13:37:50.655Z,99939.31
2022-08-22T13:43:02.066Z,99959.13
2022-08-22T13:48:03.775Z,99920.19
2022-08-22T13:53:02.453Z,99946.56
2022-08-22T13:58:06.956Z,99947.41
2022-08-22T14:03:32.893Z,99939.84
2022-08-22T14:08:49.079Z,99941.72
2022-08-22T14:14:00.109Z,99939.03
2022-08-22T14:18:57.927Z,99925.94
2022-08-22T14:24:07.061Z,99919.41
2022-08-22T14:29:04.886Z,99936.34
2022-08-22T14:34:11.054Z,99931.31
2022-08-22T14:39:21.875Z,99928.81
2022-08-22T14:44:44.881Z,99931.00
2022-08-22T14:49:49.924Z,99937.38
2022-08-22T14:54:50.918Z,99933.00
2022-08-22T14:59:44.282Z,99930.16
2022-08-22T15:04:44.344Z,99906.34
2022-08-22T15:09:37.594Z,99918.94
2022-08-22T15:14:36.662Z,99921.94
2022-08-22T15:19:36.763Z,99914.91
2022-08-22T15:24:39.662Z,99887.22
2022-08-22T15:29:49.336Z,99873.97
2022-08-22T15:34:52.459Z,99872.97
2022-08-22T15:40:08.564Z,99901.66
2022-08-22T15:45:05.176Z,99876.97
2022-08-22T15:50:05.563Z,99898.97
2022-08-22T15:55:23.292Z,99892.44
2022-08-22T16:01:03.472Z,99900.47
2022-08-22T16:06:05.272Z,99891.44
2022-08-22T16:11:03.372Z,99904.66
2022-08-22T16:16:04.918Z,99899.47
2022-08-22T16:20:58.050Z,99890.59
2022-08-22T16:25:52.276Z,99885.56
2022-08-22T16:30:46.773Z,99871.63
2022-08-22T16:36:17.492Z,99886.06
2022-08-22T16:41:35.253Z,99893.31
2022-08-22T16:46:38.707Z,99895.16
2022-08-22T16:51:32.832Z,99892.63
2022-08-22T16:56:55.510Z,99904.38
2022-08-22T17:02:19.898Z,99901.38
2022-08-22T17:07:16.046Z,99913.63
2022-08-22T17:12:45.846Z,99922.00
2022-08-22T17:18:12.235Z,99923.00
2022-08-22T17:23:38.414Z,99906.72
2022-08-22T17:28:43.469Z,99915.13
2022-08-22T17:33:41.846Z,99928.84
2022-08-22T17:38:55.944Z,99915.28
2022-08-22T17:44:23.296Z,99920.13
2022-08-22T17:49:35.831Z,99901.19
2022-08-22T17:54:49.495Z,99927.69
2022-08-22T18:00:13.202Z,99913.09
2022-08-22T18:05:08.794Z,99926.31
2022-08-22T18:10:06.684Z,99913.25
2022-08-22T18:15:26.229Z,99927.19
2022-08-22T18:20:26.293Z,99939.94
2022-08-22T18:25:19.151Z,99940.63
2022-08-22T18:30:11.996Z,99919.81
2022-08-22T18:35:17.528Z,99964.28
2022-08-22T18:40:45.535Z,99955.56
2022-08-22T18:45:46.099Z,99963.63
2022-08-22T18:50:40.144Z,99959.94
2022-08-22T18:56:04.597Z,99988.81
2022-08-22T19:01:08.804Z,99944.16
2022-08-22T19:06:22.866Z,99983.91
2022-08-22T19:11:23.412Z,99974.19
2022-08-22T19:16:45.080Z,99992.66
2022-08-22T19:21:57.172Z,99990.13
2022-08-22T19:27:10.619Z,99999.72
2022-08-22T19:32:12.783Z,99997.84
2022-08-22T19:37:30.695Z,100002.88
2022-08-22T19:42:27.632Z,100018.84
2022-08-22T19:47:24.824Z,100018.66
2022-08-22T19:52:30.046Z,100030.59
2022-08-22T19:57:47.573Z,100026.91
2022-08-22T20:02:59.560Z,100033.09
2022-08-22T20:08:34.789Z,100033.41
2022-08-22T20:13:32.475Z,100033.41
2022-08-22T20:19:07.828Z,100041.97
2022-08-22T20:24:12.598Z,100033.16
2022-08-22T20:29:08.125Z,100051.63
2022-08-22T20:34:09.235Z,100050.13
2022-08-22T20:39:16.329Z,100033.69
2022-08-22T20:44:22.484Z,100052.59
2022-08-22T20:49:29.528Z,100045.81
2022-08-22T20:54:26.348Z,100026.50
2022-08-22T20:59:37.842Z,100052.47
2022-08-22T21:04:58.287Z,100020.38
2022-08-22T21:10:22.564Z,100044.56
2022-08-22T21:15:30.455Z,100022.75
2022-08-22T21:20:24.696Z,100064.91
2022-08-22T21:25:18.210Z,100072.81
2022-08-22T21:30:22.035Z,100042.72
2022-08-22T21:35:55.501Z,100068.38
2022-08-22T21:40:48.669Z,100066.44
2022-08-22T21:45:46.006Z,100041.13
2022-08-22T21:50:42.121Z,100074.66
2022-08-22T21:55:43.922Z,100070.50
2022-08-22T22:00:49.447Z,100075.72
2022-08-22T22:05:44.540Z,100073.06
2022-08-22T22:10:40.437Z,100061.31
2022-08-22T22:15:40.695Z,100090.59
2022-08-22T22:20:35.033Z,100094.63
2022-08-22T22:25:40.973Z,100070.78
2022-08-22T22:30:42.127Z,100081.53
2022-08-22T22:35:35.271Z,100077.69
2022-08-22T22:40:29.723Z,100088.94
2022-08-22T22:45:23.522Z,100086.94
2022-08-22T22:50:18.449Z,100102.91
2022-08-22T22:55:12.789Z,100105.44
2022-08-22T23:00:18.996Z,100102.91
2022-08-22T23:05:12.756Z,100098.72
2022-08-22T23:10:08.023Z,100106.13
2022-08-22T23:15:01.070Z,100098.03
2022-08-22T23:19:54.503Z,100094.19
2022-08-22T23:24:50.929Z,100091.97
2022-08-22T23:29:44.516Z,100103.06
2022-08-22T23:34:43.413Z,100118.25
2022-08-22T23:39:39.122Z,100097.69
2022-08-22T23:44:36.943Z,100093.16
2022-08-22T23:49:31.059Z,100122.97
2022-08-22T23:54:25.592Z,100119.28
2022-08-22T23:59:21.495Z,100102.25
